Погода Затолокинона 2 недели

Пензенская область, Россия

26 мая-08 июня
  • 26мая
    Сегодня
    +13°
    +26°
    Ясно и безоблачно
    ВремяПогодаТемператураВлажностьДавлениеВетер, м/сВероятность осадков
    00:00Ясно и безоблачно+12°C44 %756 мм1.0 м/с2 %
    03:00Ясно и безоблачно+8°C51 %756 мм0.9 м/с2 %
    06:00Ясно и безоблачно+13°C49 %755 мм1.1 м/с2 %
    09:00Ясно и безоблачно+21°C34 %755 мм2.2 м/с2 %
    12:00Ясно и безоблачно+24°C26 %754 мм2.6 м/с2 %
    15:00Ясно и безоблачно+25°C26 %753 мм2.5 м/с2 %
    18:00Ясно и безоблачно+24°C30 %753 мм2.3 м/с2 %
    21:00Ясно и безоблачно+16°C50 %753 мм1.1 м/с2 %
  • 27мая
    Понедельник
    +8°
    +22°
    Ясно и безоблачно
    ВремяПогодаТемператураВлажностьДавлениеВетер, м/сВероятность осадков
    00:00Ясно и безоблачно+15°C77 %754 мм1.7 м/с2 %
    03:00Небольшая облачность+13°C81 %755 мм1.9 м/с2 %
    06:00Ясно и безоблачно+14°C71 %756 мм1.9 м/с2 %
    09:00Ясно и безоблачно+18°C39 %757 мм2.8 м/с2 %
    12:00Ясно и безоблачно+20°C27 %757 мм2.9 м/с2 %
    15:00Ясно и безоблачно+22°C22 %757 мм2.6 м/с2 %
    18:00Ясно и безоблачно+20°C26 %756 мм2.5 м/с2 %
    21:00Ясно и безоблачно+13°C40 %757 мм1.5 м/с2 %
  • 28мая
    Вторник
    +9°
    +24°
    Ясно и безоблачно
    ВремяПогодаТемператураВлажностьДавлениеВетер, м/сВероятность осадков
    00:00Ясно и безоблачно+11°C49 %757 мм1.4 м/с2 %
    03:00Ясно и безоблачно+9°C54 %757 мм1.6 м/с2 %
    06:00Ясно и безоблачно+11°C47 %757 мм1.2 м/с2 %
    09:00Ясно и безоблачно+18°C30 %757 мм1.6 м/с2 %
    12:00Ясно и безоблачно+22°C25 %757 мм1.8 м/с2 %
    15:00Ясно и безоблачно+23°C23 %755 мм1.4 м/с2 %
    18:00Ясно и безоблачно+23°C24 %754 мм1.3 м/с2 %
    21:00Ясно и безоблачно+14°C37 %753 мм0.6 м/с2 %
  • 29мая
    Среда
    +12°
    +26°
    Ясно и безоблачно
    ВремяПогодаТемператураВлажностьДавлениеВетер, м/сВероятность осадков
    00:00Ясно и безоблачно+12°C46 %753 мм0.7 м/с2 %
    03:00Ясно и безоблачно+10°C57 %753 мм0.9 м/с2 %
    06:00Ясно и безоблачно+14°C52 %752 мм0.7 м/с2 %
    09:00Ясно и безоблачно+21°C27 %753 мм1.3 м/с2 %
    12:00Ясно и безоблачно+25°C23 %752 мм1.6 м/с2 %
    15:00Ясно и безоблачно+25°C21 %750 мм1.0 м/с2 %
    18:00Ясно и безоблачно+25°C23 %749 мм1.2 м/с2 %
    21:00Облачно с прояснениями+16°C38 %749 мм0.4 м/с2 %
  • 30мая
    Четверг
    +13°
    +27°
    Ясно и безоблачно
    ВремяПогодаТемператураВлажностьДавлениеВетер, м/сВероятность осадков
    00:00Облачно с прояснениями+14°C51 %749 мм0.9 м/с2 %
    03:00Небольшая облачность+12°C48 %749 мм0.9 м/с2 %
    06:00Практически безоблачно+16°C54 %749 мм0.8 м/с2 %
    09:00Ясно и безоблачно+23°C26 %749 мм1.7 м/с2 %
    12:00Ясно и безоблачно+26°C20 %749 мм1.9 м/с2 %
    15:00Ясно и безоблачно+27°C19 %748 мм1.7 м/с2 %
    18:00Облачно с прояснениями+26°C22 %748 мм1.9 м/с2 %
    21:00Облачно с прояснениями+17°C39 %748 мм1.3 м/с2 %
Мы используем cookies
Соглашаюсь